Airfield :
LOGIN :

Register | Disclaimer

   EN    FR    IT 

 










Legend :    VFR   Marginal VFR   IFR   Intensive IFR   Very Intensive IFR
Visi :
Ceiling :
>= 8 km
>= 3000ft
5 to 8 km
1000 to 3000 ft
1500m to 5 km
500 to 1000 ft
800 to 1500m
200 to 500 ft
< 800m
< 200 ft
Symbols :   Thunderstorms  Fog  Heavy snow  Heavy precipitations  Wind > 20 kt
SIGMETs :     Misc.  Thunderstorms  Icing  Turbulence  Mountain Waves  Volcanic Ashes






- Airport Elevation : 194 ft
- IATA code : LME


LFRM - Le Mans

CURRENT METAR :
  • 211800Z AUTO 01007KT 330V030 CAVOK 12/07 Q1017 NOSIG

EXPIRED METARs :
  • 211730Z AUTO 01008KT 9999 FEW027 BKN070 12/08 Q1016 NOSIG
  • 211700Z AUTO VRB02KT CAVOK 13/09 Q1015 NOSIG
  • 211630Z AUTO 34003KT 290V020 9999 NCD 14/10 Q1015 NOSIG
  • 211600Z AUTO 35006KT 310V020 CAVOK 15/10 Q1015 TEMPO 4500 -SHRA BKN030TCU
  • 211530Z AUTO 35007KT 300V020 9999 FEW024 SCT042 BKN049 14/10 Q1014 TEMPO 4500 -SHRA BKN030TCU

TAF TAF LFRM
Valid from the 21 at 18:00 until the 22 at 18:00 UTC


211700Z 2118/2218 35005KT CAVOK



MET'MAP, your aeronautical weather chart ! - Copyright ORBIFLY December 2007 - Disclaimer

ORBIFLY MET'MAP TEAM :

Programming & Development : Alexandra Zaïnal
Concept & original design : Baudouin d'Aumeries
Assistance for programming : Marc-Olivier Méhu
Technical & hardware support : Manuel Goepfert

Contact : metmap@orbifly.com




SOURCES & CREDITS :

   NOAA